Time;durP1;ratioP1;P1;durP2;ratioP2;P2;SDS_P1;SDS_P2;PMS_P1;PMS_P2;Temp;Humidity;BMP_temperature;BMP_pressure;BME280_temperature;BME280_humidity;BME280_pressure;Samples;Min_cycle;Max_cycle;Signal;HPM_P1;HPM_P2
2022/12/31 05:02:17;;;;;;;11.10;3.20;;;11.10;99.90;;;;;;6058788;23;20023;-81
2022/12/31 05:04:43;;;;;;;9.40;3.20;;;11.10;99.90;;;;;;6069372;23;20350;-82
2022/12/31 05:07:08;;;;;;;10.45;3.60;;;11.10;99.90;;;;;;6044503;23;20010;-82
2022/12/31 05:09:59;;;;;;;10.15;4.50;;;11.10;99.90;;;;;;6049680;23;20121;-84
2022/12/31 05:12:25;;;;;;;16.75;4.32;;;11.00;99.90;;;;;;6069533;23;20453;-83
2022/12/31 05:14:50;;;;;;;11.02;4.60;;;11.00;99.90;;;;;;6069493;23;20062;-83
2022/12/31 05:17:16;;;;;;;12.25;4.70;;;11.10;99.90;;;;;;6045235;23;20019;-83
2022/12/31 05:19:42;;;;;;;13.02;4.90;;;11.00;99.90;;;;;;6044403;23;20337;-82
2022/12/31 05:24:51;;;;;;;14.93;6.35;;;11.10;99.90;;;;;;6044232;23;20025;-82
2022/12/31 05:27:17;;;;;;;16.00;7.90;;;11.10;99.90;;;;;;6044005;23;20019;-82
2022/12/31 05:29:43;;;;;;;16.35;6.65;;;11.10;99.90;;;;;;6020542;23;20018;-84
2022/12/31 05:32:08;;;;;;;16.42;7.60;;;11.00;99.90;;;;;;6069882;23;20382;-81
2022/12/31 05:34:34;;;;;;;17.63;8.02;;;11.10;99.90;;;;;;6070050;23;20018;-83
2022/12/31 05:37:00;;;;;;;17.98;7.55;;;11.10;99.90;;;;;;6073950;23;20414;-86
2022/12/31 05:39:25;;;;;;;15.05;8.07;;;11.10;99.90;;;;;;6072268;23;20023;-84
2022/12/31 05:41:51;;;;;;;15.15;8.20;;;11.10;99.90;;;;;;6046395;23;20019;-83
2022/12/31 05:44:16;;;;;;;14.88;8.25;;;11.00;99.90;;;;;;6047096;23;20015;-83
2022/12/31 05:46:42;;;;;;;16.38;8.82;;;11.10;99.90;;;;;;6046974;23;20079;-82
2022/12/31 05:49:08;;;;;;;13.85;8.00;;;11.10;99.90;;;;;;6046980;23;20022;-82
2022/12/31 05:51:33;;;;;;;15.02;8.27;;;11.00;99.90;;;;;;6072313;23;20385;-82
2022/12/31 05:53:59;;;;;;;12.05;6.53;;;11.00;99.90;;;;;;6047435;23;20015;-85
2022/12/31 05:56:24;;;;;;;13.20;6.80;;;11.00;99.90;;;;;;6073118;23;20015;-83
2022/12/31 05:58:50;;;;;;;9.82;6.03;;;11.00;99.90;;;;;;6047533;23;20093;-86
2022/12/31 06:01:16;;;;;;;13.13;6.70;;;11.00;99.90;;;;;;6048378;23;20011;-85
2022/12/31 06:03:41;;;;;;;12.73;5.70;;;11.00;99.90;;;;;;6047971;23;20015;-85
2022/12/31 06:06:07;;;;;;;11.13;5.43;;;11.00;99.90;;;;;;6048952;23;20023;-86
2022/12/31 06:08:33;;;;;;;13.75;6.05;;;11.00;99.90;;;;;;6049065;23;20038;-87
2022/12/31 06:10:58;;;;;;;9.70;5.30;;;10.90;99.90;;;;;;6073365;23;20018;-82
2022/12/31 06:13:24;;;;;;;10.57;5.07;;;10.90;99.90;;;;;;6048522;23;20014;-87
2022/12/31 06:15:49;;;;;;;11.90;4.93;;;10.90;99.90;;;;;;6048613;23;20050;-85
2022/12/31 06:18:15;;;;;;;9.20;3.85;;;10.90;99.90;;;;;;6048181;23;20081;-86
2022/12/31 06:20:41;;;;;;;10.73;3.95;;;10.80;99.90;;;;;;6048090;23;20007;-87
2022/12/31 06:23:06;;;;;;;9.30;4.25;;;10.80;99.90;;;;;;6048481;23;20054;-86
2022/12/31 06:25:34;;;;;;;9.73;3.35;;;10.80;99.90;;;;;;6048445;23;20018;-85
2022/12/31 06:27:59;;;;;;;8.93;3.83;;;10.80;99.90;;;;;;6025210;23;20077;-86
2022/12/31 06:30:25;;;;;;;7.45;3.42;;;10.70;99.90;;;;;;6047712;23;20020;-85
2022/12/31 06:32:51;;;;;;;8.18;3.50;;;10.80;99.90;;;;;;6048381;23;20015;-84
2022/12/31 06:35:16;;;;;;;7.63;3.63;;;10.70;99.90;;;;;;6074055;23;20019;-84
2022/12/31 06:37:42;;;;;;;6.70;3.50;;;10.70;99.90;;;;;;6073436;23;20381;-84
2022/12/31 06:40:08;;;;;;;7.47;3.75;;;10.70;99.90;;;;;;6049181;23;20147;-85
2022/12/31 06:42:34;;;;;;;6.90;3.35;;;10.70;99.90;;;;;;6073233;23;20023;-84
2022/12/31 06:45:00;;;;;;;8.90;4.45;;;10.70;99.90;;;;;;6073669;23;20528;-85
2022/12/31 06:47:25;;;;;;;7.53;3.30;;;10.60;99.90;;;;;;6047548;23;20022;-86
2022/12/31 06:49:52;;;;;;;9.27;4.35;;;10.70;99.90;;;;;;6046938;23;20014;-85
2022/12/31 06:52:17;;;;;;;8.82;4.55;;;10.70;99.90;;;;;;6023989;23;20074;-85
2022/12/31 06:54:43;;;;;;;8.68;3.80;;;10.60;99.90;;;;;;6022809;23;20015;-83
2022/12/31 06:57:09;;;;;;;7.93;4.25;;;10.60;99.90;;;;;;6073010;23;20442;-85
2022/12/31 06:59:35;;;;;;;6.97;3.97;;;10.60;99.90;;;;;;6024072;23;20090;-86
2022/12/31 07:02:20;;;;;;;8.45;4.32;;;10.60;99.90;;;;;;6047071;23;20019;-85
2022/12/31 07:04:59;;;;;;;9.90;4.90;;;10.60;99.90;;;;;;6048527;23;20074;-85
2022/12/31 07:07:47;;;;;;;8.52;4.88;;;10.60;99.90;;;;;;6023805;23;20015;-86
2022/12/31 07:10:21;;;;;;;8.88;5.07;;;10.60;99.90;;;;;;6045696;23;20010;-84
2022/12/31 07:13:02;;;;;;;9.25;5.45;;;10.60;99.90;;;;;;6045697;23;20015;-83
2022/12/31 07:15:49;;;;;;;8.80;5.35;;;10.60;99.90;;;;;;6047386;23;20314;-84
2022/12/31 07:18:21;;;;;;;8.02;4.97;;;10.60;99.90;;;;;;6046957;23;20015;-87
2022/12/31 07:20:47;;;;;;;7.60;4.55;;;10.60;99.90;;;;;;6048025;23;20015;-86
2022/12/31 07:23:13;;;;;;;6.63;4.70;;;10.60;99.90;;;;;;6047366;23;20019;-84
2022/12/31 07:25:50;;;;;;;7.43;4.25;;;10.60;99.90;;;;;;6072073;23;20441;-83
2022/12/31 07:28:36;;;;;;;7.22;4.28;;;10.60;99.90;;;;;;6047525;23;20084;-87
2022/12/31 07:31:16;;;;;;;6.75;4.07;;;10.60;99.90;;;;;;6023982;23;20011;-87
2022/12/31 07:33:57;;;;;;;6.43;4.05;;;10.60;99.90;;;;;;6071533;23;20054;-85
2022/12/31 07:36:28;;;;;;;5.70;3.45;;;10.70;99.90;;;;;;6022659;23;20021;-86
2022/12/31 07:39:03;;;;;;;6.93;3.95;;;10.70;99.90;;;;;;6047023;23;20022;-85
2022/12/31 07:41:57;;;;;;;7.15;4.10;;;10.70;99.90;;;;;;6045562;23;20011;-85
2022/12/31 07:44:40;;;;;;;7.68;3.83;;;10.70;99.90;;;;;;6071197;23;20018;-84
2022/12/31 07:47:24;;;;;;;7.07;3.70;;;10.70;99.90;;;;;;6045977;23;20019;-86
2022/12/31 07:49:51;;;;;;;9.75;4.32;;;10.70;99.90;;;;;;6046789;23;20015;-84
2022/12/31 07:52:18;;;;;;;6.68;3.78;;;10.70;99.90;;;;;;6046827;23;20015;-84
2022/12/31 07:54:43;;;;;;;6.00;3.70;;;10.80;99.90;;;;;;6046029;23;20319;-83
2022/12/31 07:57:14;;;;;;;5.88;3.47;;;10.70;99.90;;;;;;6045272;23;20067;-86
2022/12/31 08:00:00;;;;;;;6.18;3.35;;;10.80;99.90;;;;;;6045096;23;20074;-85
2022/12/31 08:02:52;;;;;;;6.80;3.97;;;10.80;99.90;;;;;;6021107;23;20026;-83
2022/12/31 08:05:30;;;;;;;7.28;3.90;;;10.80;99.90;;;;;;6044930;23;20015;-83
2022/12/31 08:08:37;;;;;;;6.82;3.92;;;10.90;99.90;;;;;;6045346;23;20051;-83
2022/12/31 08:11:36;;;;;;;8.13;4.57;;;10.90;99.90;;;;;;5956782;24;20115;-85
2022/12/31 08:14:02;;;;;;;8.90;5.03;;;10.90;99.90;;;;;;5953336;24;20087;-85
2022/12/31 08:16:29;;;;;;;9.32;4.75;;;11.00;99.90;;;;;;6039973;23;20018;-84
2022/12/31 08:18:56;;;;;;;9.05;5.43;;;11.00;99.90;;;;;;6072199;23;20015;-84
2022/12/31 08:21:31;;;;;;;10.80;5.57;;;11.00;99.90;;;;;;6072804;23;20009;-85
2022/12/31 08:24:12;;;;;;;8.65;5.55;;;11.10;99.90;;;;;;6046709;23;20062;-84
2022/12/31 08:26:51;;;;;;;9.48;5.45;;;11.10;99.90;;;;;;6046213;23;20022;-82
2022/12/31 08:29:42;;;;;;;9.65;5.85;;;11.20;99.90;;;;;;6071762;23;20461;-85
2022/12/31 08:32:15;;;;;;;9.43;5.68;;;11.20;99.90;;;;;;6072297;23;20025;-88
2022/12/31 08:34:57;;;;;;;20.80;10.50;;;11.30;99.90;;;;;;6045895;23;20015;-83
2022/12/31 08:37:58;;;;;;;9.48;5.85;;;11.30;99.90;;;;;;6071525;23;20386;-87
2022/12/31 08:40:47;;;;;;;10.00;5.72;;;11.40;99.90;;;;;;6007849;23;20011;-83
2022/12/31 08:43:40;;;;;;;7.30;4.95;;;11.50;99.90;;;;;;6046521;23;19999;-86
2022/12/31 08:46:31;;;;;;;9.07;5.72;;;11.60;99.90;;;;;;6022722;23;20019;-85
2022/12/31 08:48:57;;;;;;;8.90;4.78;;;11.60;99.90;;;;;;6047707;23;20026;-84
2022/12/31 08:51:25;;;;;;;7.90;4.07;;;11.70;99.90;;;;;;6071789;23;20018;-85
2022/12/31 08:53:52;;;;;;;7.53;4.05;;;11.70;99.90;;;;;;6046205;23;20021;-85
2022/12/31 08:56:20;;;;;;;6.75;4.18;;;11.80;99.90;;;;;;6071707;23;20070;-86
2022/12/31 08:59:13;;;;;;;6.47;4.57;;;11.90;99.90;;;;;;6046063;23;20078;-85
2022/12/31 09:02:10;;;;;;;5.72;3.83;;;11.90;99.90;;;;;;6022219;23;20015;-84
2022/12/31 09:05:06;;;;;;;6.05;3.72;;;12.00;99.90;;;;;;6045836;23;20051;-83
2022/12/31 09:07:38;;;;;;;4.88;3.53;;;12.10;99.90;;;;;;6046176;23;20398;-83
2022/12/31 09:10:29;;;;;;;6.25;3.67;;;12.10;99.90;;;;;;6071319;23;20026;-86
2022/12/31 09:12:57;;;;;;;3.88;2.75;;;12.20;99.90;;;;;;6046564;23;20023;-85
2022/12/31 09:15:32;;;;;;;7.13;3.42;;;12.30;99.90;;;;;;6045812;23;20025;-85
2022/12/31 09:17:58;;;;;;;5.07;2.28;;;12.30;99.90;;;;;;6072095;23;20011;-84
2022/12/31 09:20:27;;;;;;;4.13;2.25;;;12.40;99.90;;;;;;6071060;23;20019;-82
2022/12/31 09:22:54;;;;;;;4.95;2.55;;;12.40;99.90;;;;;;6045826;23;20019;-86
2022/12/31 09:25:21;;;;;;;3.13;1.10;;;12.50;99.90;;;;;;6022128;23;20044;-84
2022/12/31 09:28:28;;;;;;;3.75;1.38;;;12.60;99.90;;;;;;6044433;23;20066;-82
2022/12/31 09:31:17;;;;;;;2.92;1.30;;;12.70;99.90;;;;;;6047143;23;20127;-86
2022/12/31 09:33:53;;;;;;;2.28;0.95;;;12.70;99.90;;;;;;6047110;23;20021;-88
2022/12/31 09:36:30;;;;;;;4.10;1.42;;;12.70;99.90;;;;;;6022865;23;20509;-87
2022/12/31 09:39:43;;;;;;;;;;;;;;;;;;;;;
2022/12/31 09:42:43;;;;;;;3.25;0.80;;;12.80;99.90;;;;;;6047957;23;20014;-89
2022/12/31 09:45:43;;;;;;;2.15;0.60;;;12.90;99.90;;;;;;6022855;23;20015;-85
2022/12/31 09:48:36;;;;;;;2.83;0.80;;;13.00;99.90;;;;;;6019457;23;20074;-82
2022/12/31 09:51:15;;;;;;;2.45;0.75;;;13.10;99.90;;;;;;6041904;23;20097;-82
2022/12/31 09:53:59;;;;;;;4.85;0.80;;;13.20;99.90;;;;;;6042625;23;20143;-81
2022/12/31 09:56:28;;;;;;;3.38;0.82;;;13.20;99.90;;;;;;6028804;23;20023;-83
2022/12/31 09:59:04;;;;;;;4.18;0.77;;;13.30;99.90;;;;;;6040054;23;20039;-81
2022/12/31 10:02:09;;;;;;;2.30;0.82;;;13.30;99.90;;;;;;6044606;23;20278;-83
2022/12/31 10:04:59;;;;;;;5.22;1.13;;;13.30;99.90;;;;;;6045375;23;20029;-83
2022/12/31 10:07:51;;;;;;;3.75;0.98;;;13.30;99.90;;;;;;6046154;23;20094;-84
2022/12/31 10:10:33;;;;;;;3.53;1.10;;;13.40;99.90;;;;;;6044627;23;20019;-83
2022/12/31 10:13:04;;;;;;;5.40;1.20;;;13.40;99.90;;;;;;6043793;23;20093;-83
2022/12/31 10:15:37;;;;;;;4.70;1.42;;;13.40;99.90;;;;;;6043334;23;20026;-81
2022/12/31 10:18:24;;;;;;;4.28;0.82;;;13.50;99.90;;;;;;6044485;23;20022;-83
2022/12/31 10:21:15;;;;;;;4.90;0.93;;;13.50;99.90;;;;;;6019840;23;20015;-81
2022/12/31 10:24:03;;;;;;;6.63;0.95;;;13.50;99.90;;;;;;6071051;23;20096;-83
2022/12/31 10:26:43;;;;;;;4.75;1.20;;;13.50;99.90;;;;;;6044986;23;20445;-81
2022/12/31 10:29:47;;;;;;;7.45;1.55;;;13.50;99.90;;;;;;6045884;23;20406;-84
2022/12/31 10:32:27;;;;;;;6.90;1.13;;;13.60;99.90;;;;;;6044883;23;20018;-82
2022/12/31 10:35:01;;;;;;;9.90;3.72;;;13.60;99.90;;;;;;6045943;23;20142;-79
2022/12/31 10:38:05;;;;;;;8.10;1.33;;;13.70;99.90;;;;;;6045861;23;20046;-82
2022/12/31 10:40:49;;;;;;;8.32;1.00;;;13.70;99.90;;;;;;6002758;23;20018;-81
2022/12/31 10:43:39;;;;;;;8.52;2.08;;;13.70;99.90;;;;;;6046451;23;20019;-83
2022/12/31 10:46:07;;;;;;;8.88;1.92;;;13.70;99.90;;;;;;6071471;23;20022;-78
2022/12/31 10:48:53;;;;;;;14.10;3.75;;;13.70;99.90;;;;;;6073043;23;20038;-83
2022/12/31 10:51:40;;;;;;;6.35;1.20;;;13.60;99.90;;;;;;6045156;23;20015;-80
2022/12/31 10:54:27;;;;;;;5.78;2.03;;;13.70;99.90;;;;;;6046161;23;20011;-83
2022/12/31 10:57:23;;;;;;;11.80;2.67;;;13.70;99.90;;;;;;6023244;23;20025;-80
2022/12/31 10:59:55;;;;;;;10.45;3.85;;;13.60;99.90;;;;;;6045899;23;20034;-79
2022/12/31 11:02:54;;;;;;;6.75;2.13;;;13.60;99.90;;;;;;6021979;23;20034;-81
2022/12/31 11:05:41;;;;;;;6.00;1.25;;;13.60;99.90;;;;;;6045943;23;20104;-81
2022/12/31 11:08:25;;;;;;;12.15;2.20;;;13.70;99.90;;;;;;6021067;23;20015;-81
2022/12/31 11:11:06;;;;;;;3.53;0.90;;;13.70;99.90;;;;;;6045716;23;20042;-82
2022/12/31 11:13:56;;;;;;;3.78;1.20;;;13.70;99.90;;;;;;6046905;23;20011;-82
2022/12/31 11:17:15;;;;;;;5.32;1.02;;;13.60;99.90;;;;;;6048102;23;20050;-81
2022/12/31 11:20:18;;;;;;;4.55;1.20;;;13.50;99.90;;;;;;5989228;23;20337;-83
2022/12/31 11:22:53;;;;;;;5.63;1.23;;;13.40;99.90;;;;;;6046874;23;20105;-82
2022/12/31 11:25:37;;;;;;;5.13;1.15;;;13.30;99.90;;;;;;6071828;23;20449;-83
2022/12/31 11:28:11;;;;;;;5.65;1.23;;;13.20;99.90;;;;;;6046943;23;20412;-83
2022/12/31 11:31:05;;;;;;;6.18;1.38;;;13.00;99.90;;;;;;6046001;23;20019;-81
2022/12/31 11:33:51;;;;;;;4.60;2.08;;;13.00;99.90;;;;;;6071314;23;20011;-82
2022/12/31 11:36:32;;;;;;;5.93;1.80;;;12.90;99.90;;;;;;6046108;23;20019;-83
2022/12/31 11:39:32;;;;;;;7.70;3.13;;;12.90;99.90;;;;;;6045707;23;20014;-82
2022/12/31 11:42:34;;;;;;;8.65;3.15;;;12.90;99.90;;;;;;6044577;23;20041;-83
2022/12/31 11:45:30;;;;;;;6.97;2.05;;;12.90;99.90;;;;;;6045461;23;20097;-83
2022/12/31 11:48:17;;;;;;;10.60;3.80;;;12.90;99.90;;;;;;6021566;23;20054;-85
2022/12/31 11:51:09;;;;;;;8.10;3.13;;;12.90;99.90;;;;;;6069925;23;20019;-84
2022/12/31 11:54:23;;;;;;;10.02;3.40;;;12.90;99.90;;;;;;6069966;23;20011;-84
2022/12/31 11:57:11;;;;;;;11.02;3.50;;;12.90;99.90;;;;;;6044483;23;20046;-83
2022/12/31 11:59:37;;;;;;;10.63;3.28;;;12.90;99.90;;;;;;6069437;23;20011;-83
2022/12/31 12:02:33;;;;;;;11.05;3.72;;;12.80;99.90;;;;;;6019693;23;20015;-83
2022/12/31 12:05:01;;;;;;;9.60;3.15;;;12.80;99.90;;;;;;6043929;23;20025;-82
2022/12/31 12:07:28;;;;;;;11.45;4.72;;;12.90;99.90;;;;;;6069654;23;20018;-84
2022/12/31 12:09:55;;;;;;;6.93;2.83;;;13.00;99.90;;;;;;6045392;23;20580;-84
2022/12/31 12:12:21;;;;;;;8.68;2.92;;;13.00;99.90;;;;;;6044392;23;20098;-84
2022/12/31 12:14:52;;;;;;;6.55;3.00;;;13.00;99.90;;;;;;6022626;23;20046;-85
2022/12/31 12:17:31;;;;;;;10.88;4.05;;;13.10;99.90;;;;;;6021083;23;20041;-83
2022/12/31 12:20:00;;;;;;;5.20;2.60;;;13.10;99.90;;;;;;6069184;23;20011;-85
2022/12/31 12:22:29;;;;;;;4.55;2.67;;;13.10;99.90;;;;;;6043395;23;20468;-86
2022/12/31 12:25:18;;;;;;;6.20;3.80;;;13.10;99.90;;;;;;6069249;23;20011;-82
2022/12/31 12:27:43;;;;;;;4.45;2.35;;;13.10;99.90;;;;;;6045371;23;20062;-84
2022/12/31 12:30:27;;;;;;;11.13;2.70;;;13.20;99.90;;;;;;6046162;23;20015;-86
2022/12/31 12:32:54;;;;;;;10.55;3.20;;;13.20;99.90;;;;;;6022195;23;20429;-84
2022/12/31 12:35:28;;;;;;;9.20;2.63;;;13.30;99.90;;;;;;6021753;23;20070;-86
2022/12/31 12:38:05;;;;;;;10.07;2.50;;;13.30;99.90;;;;;;6071070;23;20495;-83
2022/12/31 12:40:33;;;;;;;8.80;2.20;;;13.30;99.90;;;;;;6045517;23;20011;-82
2022/12/31 12:42:59;;;;;;;8.00;3.10;;;13.30;99.90;;;;;;6021898;23;20018;-86
2022/12/31 12:45:40;;;;;;;11.43;2.13;;;13.30;99.90;;;;;;6045510;23;20022;-87
2022/12/31 12:48:17;;;;;;;8.57;1.73;;;13.30;99.90;;;;;;6071687;23;20015;-85
2022/12/31 12:50:46;;;;;;;11.82;2.30;;;13.30;99.90;;;;;;6071090;23;20038;-83
2022/12/31 12:53:18;;;;;;;6.75;1.65;;;13.30;99.90;;;;;;6070460;23;20018;-85
2022/12/31 12:56:26;;;;;;;8.82;1.90;;;13.30;99.90;;;;;;6044272;23;20018;-84
2022/12/31 12:59:26;;;;;;;10.15;2.10;;;13.30;99.90;;;;;;6020864;23;20089;-85
2022/12/31 13:02:17;;;;;;;6.05;2.40;;;13.30;99.90;;;;;;6044079;23;20015;-84
2022/12/31 13:05:08;;;;;;;9.10;2.53;;;13.20;99.90;;;;;;6069199;23;20019;-84
2022/12/31 13:08:24;;;;;;;11.70;2.58;;;13.20;99.90;;;;;;6019763;23;20018;-84
2022/12/31 13:11:34;;;;;;;6.57;1.70;;;13.20;99.90;;;;;;5930683;24;20048;-84
2022/12/31 13:14:27;;;;;;;4.50;1.63;;;13.10;99.90;;;;;;5930379;24;20018;-83
2022/12/31 13:17:11;;;;;;;2.53;0.77;;;13.00;99.90;;;;;;5953640;24;20075;-83
2022/12/31 13:19:54;;;;;;;8.88;1.58;;;13.00;99.90;;;;;;5930265;24;20028;-83
2022/12/31 13:22:27;;;;;;;8.55;3.15;;;12.90;99.90;;;;;;5930098;24;20023;-83
2022/12/31 13:24:56;;;;;;;8.35;1.67;;;12.80;99.90;;;;;;5954703;24;20027;-82
2022/12/31 13:27:28;;;;;;;5.30;2.00;;;12.80;99.90;;;;;;5931597;24;20017;-81
2022/12/31 13:29:57;;;;;;;14.32;5.78;;;12.80;99.90;;;;;;5954632;24;20020;-81
2022/12/31 13:32:39;;;;;;;12.32;4.65;;;12.70;99.90;;;;;;5973131;23;20097;-81
2022/12/31 13:35:24;;;;;;;8.93;2.22;;;12.70;99.90;;;;;;6045195;23;20050;-81
2022/12/31 13:37:53;;;;;;;8.10;2.30;;;12.60;99.90;;;;;;6044627;23;20015;-81
2022/12/31 13:40:56;;;;;;;6.32;1.90;;;12.60;99.90;;;;;;6069266;23;20019;-80
2022/12/31 13:43:25;;;;;;;12.10;2.83;;;12.60;99.90;;;;;;5953295;24;20092;-82
2022/12/31 13:46:25;;;;;;;4.78;1.20;;;12.60;99.90;;;;;;5930008;24;20388;-82
2022/12/31 13:48:58;;;;;;;7.13;1.50;;;12.60;99.90;;;;;;6043811;23;20338;-82
2022/12/31 13:51:41;;;;;;;6.82;2.40;;;12.60;99.90;;;;;;6043696;23;20022;-83
2022/12/31 13:54:43;;;;;;;11.25;3.30;;;12.60;99.90;;;;;;6043393;23;20046;-84
2022/12/31 13:57:51;;;;;;;7.63;2.25;;;12.60;99.90;;;;;;6070703;23;20046;-81
2022/12/31 14:00:24;;;;;;;4.68;2.20;;;12.60;99.90;;;;;;6034144;23;20018;-82
2022/12/31 14:03:12;;;;;;;6.97;2.00;;;12.60;99.90;;;;;;6022143;23;20468;-83
2022/12/31 14:05:44;;;;;;;6.07;2.50;;;12.60;99.90;;;;;;6070564;23;20377;-85
2022/12/31 14:08:10;;;;;;;6.80;2.38;;;12.70;99.90;;;;;;6045478;23;20015;-83
2022/12/31 14:10:41;;;;;;;25.02;10.60;;;12.70;99.90;;;;;;6070651;23;20333;-84
2022/12/31 14:13:07;;;;;;;8.35;2.40;;;12.80;99.90;;;;;;6070186;23;20085;-83
2022/12/31 14:15:41;;;;;;;6.43;2.28;;;12.80;99.90;;;;;;6045432;23;20050;-82
2022/12/31 14:18:15;;;;;;;6.07;2.15;;;12.80;99.90;;;;;;6071759;23;20090;-83
2022/12/31 14:20:45;;;;;;;7.65;2.35;;;12.90;99.90;;;;;;6022205;23;20400;-83
2022/12/31 14:23:33;;;;;;;4.68;2.20;;;12.90;99.90;;;;;;6045382;23;20021;-83
2022/12/31 14:26:18;;;;;;;7.38;2.47;;;13.00;99.90;;;;;;6045006;23;20046;-84
2022/12/31 14:28:56;;;;;;;6.38;2.13;;;13.00;99.90;;;;;;6070838;23;20015;-84
2022/12/31 14:31:52;;;;;;;7.75;2.40;;;13.00;99.90;;;;;;6045014;23;20050;-83
2022/12/31 14:34:43;;;;;;;5.55;2.30;;;13.10;99.90;;;;;;6045735;23;20014;-85
2022/12/31 14:37:37;;;;;;;4.55;2.03;;;13.10;99.90;;;;;;6020993;23;20026;-85
2022/12/31 14:40:28;;;;;;;6.72;2.22;;;13.10;99.90;;;;;;6045784;23;20493;-83
2022/12/31 14:43:00;;;;;;;6.13;2.75;;;13.20;99.90;;;;;;6045542;23;20019;-82
2022/12/31 14:46:01;;;;;;;7.85;2.42;;;13.30;99.90;;;;;;6045472;23;20018;-81
2022/12/31 14:48:39;;;;;;;6.90;2.40;;;13.40;99.90;;;;;;6045638;23;20102;-83
2022/12/31 14:51:05;;;;;;;6.88;3.20;;;13.40;99.90;;;;;;6044966;23;20022;-83
2022/12/31 14:53:32;;;;;;;7.47;2.20;;;13.40;99.90;;;;;;6047535;23;20014;-83
2022/12/31 14:56:05;;;;;;;6.65;2.83;;;13.50;99.90;;;;;;6046789;23;20019;-83
2022/12/31 14:58:37;;;;;;;14.68;7.97;;;13.50;99.90;;;;;;6051015;23;20338;-81
2022/12/31 15:01:17;;;;;;;7.03;3.00;;;13.50;99.90;;;;;;6064055;23;20046;-80
2022/12/31 15:03:44;;;;;;;9.82;5.55;;;13.50;99.90;;;;;;6055741;23;20045;-80
2022/12/31 15:06:22;;;;;;;6.40;2.58;;;13.50;99.90;;;;;;6047056;23;20023;-79
2022/12/31 15:09:17;;;;;;;5.45;2.80;;;13.60;99.90;;;;;;6021724;23;20030;-80
2022/12/31 15:11:46;;;;;;;5.20;2.10;;;13.60;99.90;;;;;;6044974;23;20025;-81
2022/12/31 15:14:26;;;;;;;7.43;2.47;;;13.60;99.90;;;;;;6021065;23;20015;-81
2022/12/31 15:16:55;;;;;;;3.97;1.77;;;13.60;99.90;;;;;;6070460;23;20037;-81
2022/12/31 15:19:42;;;;;;;7.72;3.08;;;13.60;99.90;;;;;;6044481;23;20079;-81
2022/12/31 15:22:26;;;;;;;5.82;2.38;;;13.60;99.90;;;;;;6044408;23;20445;-80
2022/12/31 15:24:52;;;;;;;5.97;2.50;;;13.60;99.90;;;;;;6044325;23;20022;-81
2022/12/31 15:27:36;;;;;;;16.25;7.78;;;13.50;99.90;;;;;;6069540;23;20010;-80
2022/12/31 15:30:04;;;;;;;6.25;2.83;;;13.50;99.90;;;;;;6044067;23;20445;-82
2022/12/31 15:32:41;;;;;;;6.50;2.35;;;13.50;99.90;;;;;;6043901;23;20066;-80
2022/12/31 15:35:19;;;;;;;6.15;3.00;;;13.60;99.90;;;;;;6020769;23;20019;-79
2022/12/31 15:38:16;;;;;;;6.47;2.78;;;13.50;99.90;;;;;;6044558;23;20022;-82
2022/12/31 15:40:51;;;;;;;6.95;2.50;;;13.50;99.90;;;;;;6069254;23;20053;-81
2022/12/31 15:43:23;;;;;;;9.57;3.10;;;13.40;99.90;;;;;;6045877;23;20409;-84
2022/12/31 15:45:52;;;;;;;8.40;2.45;;;13.40;99.90;;;;;;6044631;23;20019;-82
2022/12/31 15:48:25;;;;;;;6.07;3.28;;;13.40;99.90;;;;;;6044445;23;20113;-81
2022/12/31 15:50:56;;;;;;;8.05;4.55;;;13.30;99.90;;;;;;6070982;23;20014;-81
2022/12/31 15:53:26;;;;;;;43.67;28.27;;;13.30;99.90;;;;;;6044365;23;20446;-83
2022/12/31 15:55:53;;;;;;;17.48;10.60;;;13.30;99.90;;;;;;6069870;23;20077;-81
2022/12/31 15:58:25;;;;;;;76.35;43.80;;;13.30;99.90;;;;;;6043867;23;20086;-82
2022/12/31 16:01:22;;;;;;;11.70;6.07;;;13.30;99.90;;;;;;6043528;23;20010;-81
2022/12/31 16:03:58;;;;;;;9.95;2.58;;;13.20;99.90;;;;;;6069999;23;20014;-79
2022/12/31 16:06:28;;;;;;;9.77;5.55;;;13.20;99.90;;;;;;6044043;23;20025;-85
2022/12/31 16:08:54;;;;;;;23.42;11.23;;;13.20;99.90;;;;;;6043743;23;20105;-81
2022/12/31 16:11:22;;;;;;;13.95;4.20;;;13.20;99.90;;;;;;6019789;23;20508;-79
2022/12/31 16:13:51;;;;;;;9.30;3.03;;;13.10;99.90;;;;;;6069194;23;20471;-82
2022/12/31 16:16:26;;;;;;;13.65;3.88;;;13.10;99.90;;;;;;6044059;23;20027;-80
2022/12/31 16:18:53;;;;;;;12.45;2.97;;;13.10;99.90;;;;;;6044567;23;20049;-82
2022/12/31 16:21:34;;;;;;;10.13;3.72;;;13.00;99.90;;;;;;6043291;23;20022;-80
2022/12/31 16:24:02;;;;;;;11.73;3.50;;;13.10;99.90;;;;;;6069924;23;20019;-82
2022/12/31 16:26:32;;;;;;;8.38;2.60;;;13.10;99.90;;;;;;6044367;23;20050;-81
2022/12/31 16:28:59;;;;;;;13.73;3.72;;;13.10;99.90;;;;;;6043426;23;20026;-82
2022/12/31 16:31:27;;;;;;;18.92;8.60;;;13.10;99.90;;;;;;6043341;23;20353;-81
2022/12/31 16:34:11;;;;;;;15.18;3.45;;;13.00;99.90;;;;;;6020650;23;20054;-85
2022/12/31 16:36:37;;;;;;;22.90;9.43;;;13.10;99.90;;;;;;6045675;23;20367;-83
2022/12/31 16:39:20;;;;;;;12.45;4.88;;;13.10;99.90;;;;;;6045677;23;20098;-82
2022/12/31 16:41:45;;;;;;;15.65;5.65;;;13.10;99.90;;;;;;6070957;23;20041;-83
2022/12/31 16:44:24;;;;;;;25.75;16.83;;;13.10;99.90;;;;;;6071064;23;20449;-82
2022/12/31 16:46:50;;;;;;;23.25;11.95;;;13.10;99.90;;;;;;6021825;23;20158;-83
2022/12/31 16:49:19;;;;;;;21.08;9.23;;;13.10;99.90;;;;;;6045829;23;20019;-84
2022/12/31 16:51:46;;;;;;;21.67;9.13;;;13.20;99.90;;;;;;6045533;23;20053;-82
2022/12/31 16:54:28;;;;;;;27.60;13.63;;;13.20;99.90;;;;;;6071068;23;20388;-82
2022/12/31 16:56:56;;;;;;;18.23;7.15;;;13.20;99.90;;;;;;6071564;23;20015;-83
2022/12/31 16:59:38;;;;;;;26.80;10.38;;;13.20;99.90;;;;;;6046583;23;20286;-90
2022/12/31 17:02:13;;;;;;;26.27;12.32;;;13.20;99.90;;;;;;6046213;23;20246;-83
2022/12/31 17:04:39;;;;;;;37.10;17.20;;;13.20;99.90;;;;;;6045892;23;20026;-83
2022/12/31 17:07:25;;;;;;;35.95;17.92;;;13.20;99.90;;;;;;6046013;23;20349;-83
2022/12/31 17:10:06;;;;;;;22.10;10.77;;;13.10;99.90;;;;;;6045807;23;20137;-83
2022/12/31 17:12:34;;;;;;;14.10;6.63;;;13.10;99.90;;;;;;6045628;23;20026;-83
2022/12/31 17:15:05;;;;;;;21.60;9.38;;;13.20;99.90;;;;;;6045582;23;20318;-84
2022/12/31 17:17:36;;;;;;;15.40;6.07;;;13.20;99.90;;;;;;6046557;23;20015;-84
2022/12/31 17:20:05;;;;;;;22.48;10.07;;;13.20;99.90;;;;;;6070293;23;20301;-84
2022/12/31 17:22:35;;;;;;;24.90;12.15;;;13.20;99.90;;;;;;6045077;23;20015;-83
2022/12/31 17:25:24;;;;;;;21.75;9.23;;;13.20;99.90;;;;;;6071154;23;20042;-82
2022/12/31 17:27:59;;;;;;;22.98;9.50;;;13.20;99.90;;;;;;6045424;23;20026;-83
2022/12/31 17:30:31;;;;;;;23.73;10.30;;;13.20;99.90;;;;;;6070914;23;20097;-86
2022/12/31 17:33:21;;;;;;;18.50;9.05;;;13.20;99.90;;;;;;6045823;23;20022;-83
2022/12/31 17:35:52;;;;;;;26.98;9.85;;;13.20;99.90;;;;;;6045595;23;20045;-82
2022/12/31 17:38:21;;;;;;;41.75;20.90;;;13.30;99.90;;;;;;6071390;23;20029;-83
2022/12/31 17:41:04;;;;;;;29.70;15.82;;;13.20;99.90;;;;;;6045494;23;20026;-83
2022/12/31 17:43:37;;;;;;;32.00;14.18;;;13.20;99.90;;;;;;6046146;23;20342;-83
2022/12/31 17:46:15;;;;;;;26.77;12.23;;;13.20;99.90;;;;;;6046019;23;20464;-83
2022/12/31 17:48:43;;;;;;;19.30;8.15;;;13.20;99.90;;;;;;6071365;23;20022;-84
2022/12/31 17:51:09;;;;;;;19.05;7.80;;;13.20;99.90;;;;;;6022303;23;20041;-84
2022/12/31 17:53:35;;;;;;;72.82;40.63;;;13.30;99.90;;;;;;6071736;23;20015;-83
2022/12/31 17:56:04;;;;;;;16.90;6.22;;;13.20;99.90;;;;;;6071382;23;20026;-81
2022/12/31 17:58:34;;;;;;;15.52;5.90;;;13.20;99.90;;;;;;6071111;23;20341;-83
2022/12/31 18:01:03;;;;;;;160.13;104.78;;;13.30;99.90;;;;;;6021908;23;20022;-83
2022/12/31 18:03:29;;;;;;;18.17;6.22;;;13.40;99.90;;;;;;6046439;23;20015;-83
2022/12/31 18:05:55;;;;;;;15.82;5.30;;;13.40;99.90;;;;;;6045719;23;20349;-84
2022/12/31 18:08:20;;;;;;;24.25;8.60;;;13.50;99.90;;;;;;6072088;23;20345;-82
2022/12/31 18:10:46;;;;;;;28.77;14.43;;;13.50;99.90;;;;;;6045622;23;20015;-86
2022/12/31 18:13:18;;;;;;;14.02;6.85;;;13.50;99.90;;;;;;6071083;23;20011;-85
2022/12/31 18:15:43;;;;;;;19.15;7.10;;;13.50;99.90;;;;;;6023306;23;20023;-87
2022/12/31 18:18:23;;;;;;;16.15;6.18;;;13.60;99.90;;;;;;6045916;23;20385;-83
2022/12/31 18:20:52;;;;;;;18.02;6.78;;;13.60;99.90;;;;;;6045801;23;20314;-83
2022/12/31 18:23:40;;;;;;;25.35;12.57;;;13.80;99.90;;;;;;6045644;23;20057;-81
2022/12/31 18:26:11;;;;;;;24.02;12.98;;;13.80;99.90;;;;;;6045190;23;20026;-83
2022/12/31 18:28:37;;;;;;;23.17;8.88;;;13.90;99.90;;;;;;6070475;23;20438;-81
2022/12/31 18:31:03;;;;;;;21.25;6.65;;;13.90;99.90;;;;;;6070561;23;20361;-83
2022/12/31 18:33:28;;;;;;;18.90;6.32;;;14.00;99.90;;;;;;6021256;23;20160;-81
2022/12/31 18:35:54;;;;;;;13.50;6.47;;;14.10;99.90;;;;;;6070883;23;20019;-81
2022/12/31 18:38:20;;;;;;;42.95;26.45;;;14.00;99.90;;;;;;6045212;23;20018;-81